SPTN35 YSHW-YSHW
Flight info
| Callsign | SPTN35 |
|---|---|
| Flight time | 0h 1m |
| Altitude | 2000 |
| Route | 3406S15053E 3409S15051E |
| Aircraft | H60/M-SDFGRY/LB1 |
Departure
| Time | 2026-04-13 01:51 |
|---|---|
| Airport | Holsworthy (Military) Airport (YSHW) |
Arrival
| Time | 2026-04-13 01:52 |
|---|---|
| Airport | Holsworthy (Military) Airport (YSHW) |
| Time | Latitude | Longitude | Altitude | Speed | Heading |
|---|---|---|---|---|---|
| 2026-04-13 01:44 | -33.99482 | 150.95267 | 246 ft | 0 kts | 124° |
| 2026-04-13 01:50 | -33.99483 | 150.95270 | 248 ft | 2 kts | 123° |
| 2026-04-13 01:50 | -33.99512 | 150.95282 | 248 ft | 8 kts | 212° |
| 2026-04-13 01:50 | -33.99552 | 150.95251 | 248 ft | 6 kts | 213° |
| 2026-04-13 01:50 | -33.99569 | 150.95225 | 249 ft | 5 kts | 282° |
| 2026-04-13 01:51 | -33.99523 | 150.95131 | 333 ft | 31 kts | 298° |
| 2026-04-13 01:51 | -33.99227 | 150.94916 | 870 ft | 68 kts | 352° |
| 2026-04-13 01:51 | -33.98735 | 150.95015 | 1519 ft | 79 kts | 40° |
| 2026-04-13 01:51 | -33.98257 | 150.95508 | 1625 ft | 104 kts | 55° |
| 2026-04-13 01:52 | -33.97954 | 150.96288 | 1312 ft | 98 kts | 82° |
| 2026-04-13 01:52 | -33.97871 | 150.96883 | 949 ft | 37 kts | 95° |
| 2026-04-13 01:52 | -33.98074 | 150.96843 | 720 ft | 53 kts | 156° |
| 2026-04-13 01:52 | -33.98378 | 150.96569 | 987 ft | 57 kts | 220° |
| 2026-04-13 01:53 | -33.98777 | 150.96348 | 1020 ft | 70 kts | 205° |
| 2026-04-13 01:53 | -33.99093 | 150.96344 | 1191 ft | 20 kts | 35° |
| 2026-04-13 01:53 | -33.99020 | 150.96522 | 1035 ft | 39 kts | 48° |
| 2026-04-13 01:53 | -33.98887 | 150.96692 | 954 ft | 11 kts | 39° |
| 2026-04-13 01:54 | -33.98881 | 150.96751 | 808 ft | 10 kts | 35° |
| 2026-04-13 01:54 | -33.98894 | 150.96783 | 821 ft | 4 kts | 30° |
| 2026-04-13 01:54 | -33.98945 | 150.96740 | 857 ft | 18 kts | 29° |
| 2026-04-13 01:54 | -33.99109 | 150.96620 | 950 ft | 17 kts | 4° |
| 2026-04-13 01:55 | -33.99101 | 150.96639 | 1029 ft | 9 kts | 11° |
| 2026-04-13 01:55 | -33.99053 | 150.96699 | 1055 ft | 21 kts | 7° |
| 2026-04-13 01:55 | -33.99093 | 150.96941 | 1143 ft | 36 kts | 354° |
| 2026-04-13 01:55 | -33.99204 | 150.97143 | 1139 ft | 15 kts | 308° |
| 2026-04-13 01:56 | -33.99405 | 150.96902 | 1123 ft | 73 kts | 242° |
| 2026-04-13 01:56 | -33.99511 | 150.96293 | 1190 ft | 70 kts | 296° |
| 2026-04-13 01:56 | -33.99363 | 150.95897 | 1042 ft | 35 kts | 15° |
| 2026-04-13 01:56 | -33.99159 | 150.96043 | 940 ft | 38 kts | 45° |
| 2026-04-13 01:57 | -33.99013 | 150.96278 | 833 ft | 35 kts | 46° |
| 2026-04-13 01:57 | -33.98814 | 150.96673 | 895 ft | 83 kts | 57° |
| 2026-04-13 01:57 | -33.98480 | 150.97479 | 1114 ft | 130 kts | 64° |
| 2026-04-13 01:57 | -33.98075 | 150.98595 | 1434 ft | 151 kts | 69° |
| 2026-04-13 01:58 | -33.97727 | 150.99822 | 1676 ft | 162 kts | 72° |
| 2026-04-13 01:58 | -33.97366 | 151.01145 | 1654 ft | 169 kts | 72° |
| 2026-04-13 01:58 | -33.96995 | 151.02478 | 1695 ft | 175 kts | 73° |
| 2026-04-13 01:58 | -33.96596 | 151.03843 | 1715 ft | 172 kts | 73° |
| 2026-04-13 01:59 | -33.96174 | 151.05150 | 1756 ft | 172 kts | 65° |
| 2026-04-13 01:59 | -33.95611 | 151.06397 | 2055 ft | 165 kts | 58° |
| 2026-04-13 01:59 | -33.95053 | 151.07658 | 2029 ft | 170 kts | 64° |
| 2026-04-13 01:59 | -33.94505 | 151.08914 | 2015 ft | 165 kts | 64° |
| 2026-04-13 02:00 | -33.93970 | 151.10151 | 2013 ft | 170 kts | 64° |
| 2026-04-13 02:00 | -33.93428 | 151.11416 | 2018 ft | 167 kts | 65° |
| 2026-04-13 02:00 | -33.92923 | 151.12655 | 2128 ft | 145 kts | 71° |
| 2026-04-13 02:00 | -33.92677 | 151.13495 | 1952 ft | 79 kts | 76° |
| 2026-04-13 02:01 | -33.92616 | 151.13835 | 1870 ft | 10 kts | 70° |
| 2026-04-13 02:01 | -33.92652 | 151.13871 | 1808 ft | 8 kts | 73° |
| 2026-04-13 02:01 | -33.92685 | 151.13940 | 1771 ft | 11 kts | 75° |
| 2026-04-13 02:01 | -33.92722 | 151.14021 | 1738 ft | 11 kts | 82° |
| 2026-04-13 02:02 | -33.92766 | 151.14100 | 1705 ft | 12 kts | 56° |
| 2026-04-13 02:02 | -33.92814 | 151.14200 | 1696 ft | 15 kts | 48° |
| 2026-04-13 02:02 | -33.92835 | 151.14322 | 1695 ft | 15 kts | 55° |
| 2026-04-13 02:02 | -33.92792 | 151.14441 | 1706 ft | 17 kts | 58° |
| 2026-04-13 02:03 | -33.92708 | 151.14505 | 1718 ft | 13 kts | 64° |
| 2026-04-13 02:03 | -33.92602 | 151.14483 | 1669 ft | 19 kts | 70° |
| 2026-04-13 02:03 | -33.92502 | 151.14472 | 1675 ft | 12 kts | 52° |
| 2026-04-13 02:03 | -33.92439 | 151.14502 | 1657 ft | 13 kts | 62° |
| 2026-04-13 02:04 | -33.92273 | 151.14796 | 1841 ft | 71 kts | 58° |
| 2026-04-13 02:04 | -33.91885 | 151.15397 | 1862 ft | 109 kts | 55° |
| 2026-04-13 02:04 | -33.91359 | 151.16178 | 1903 ft | 131 kts | 53° |
| 2026-04-13 02:04 | -33.90757 | 151.17049 | 1626 ft | 134 kts | 51° |
| 2026-04-13 02:05 | -33.90185 | 151.17922 | 1662 ft | 133 kts | 51° |
| 2026-04-13 02:05 | -33.89608 | 151.18844 | 1539 ft | 142 kts | 56° |
| 2026-04-13 02:05 | -33.89022 | 151.19827 | 1426 ft | 145 kts | 53° |
| 2026-04-13 02:05 | -33.88419 | 151.20745 | 1396 ft | 129 kts | 48° |
| 2026-04-13 02:06 | -33.87928 | 151.21519 | 1615 ft | 107 kts | 47° |
| 2026-04-13 02:06 | -33.87506 | 151.22181 | 1567 ft | 95 kts | 41° |
| 2026-04-13 02:06 | -33.86995 | 151.22776 | 1107 ft | 107 kts | 26° |
| 2026-04-13 02:06 | -33.86424 | 151.23219 | 834 ft | 89 kts | 357° |
| 2026-04-13 02:07 | -33.85927 | 151.23181 | 625 ft | 61 kts | 297° |
| 2026-04-13 02:07 | -33.85732 | 151.22740 | 588 ft | 71 kts | 279° |
| 2026-04-13 02:07 | -33.85599 | 151.22018 | 483 ft | 99 kts | 279° |
| 2026-04-13 02:07 | -33.85461 | 151.21220 | 627 ft | 95 kts | 276° |
| 2026-04-13 02:08 | -33.85201 | 151.20481 | 481 ft | 94 kts | 289° |
| 2026-04-13 02:08 | -33.84913 | 151.19730 | 529 ft | 98 kts | 283° |
| 2026-04-13 02:08 | -33.84600 | 151.18996 | 505 ft | 100 kts | 288° |
| 2026-04-13 02:08 | -33.84268 | 151.18263 | 507 ft | 99 kts | 289° |
| 2026-04-13 02:09 | -33.83989 | 151.17525 | 506 ft | 96 kts | 289° |
| 2026-04-13 02:09 | -33.83705 | 151.16795 | 505 ft | 96 kts | 289° |
| 2026-04-13 02:09 | -33.83433 | 151.16050 | 492 ft | 103 kts | 285° |
| 2026-04-13 02:09 | -33.83349 | 151.15154 | 543 ft | 107 kts | 269° |
| 2026-04-13 02:10 | -33.83312 | 151.14256 | 534 ft | 108 kts | 269° |
| 2026-04-13 02:10 | -33.83310 | 151.13345 | 545 ft | 111 kts | 269° |
| 2026-04-13 02:10 | -33.83309 | 151.12401 | 547 ft | 112 kts | 269° |
| 2026-04-13 02:10 | -33.83262 | 151.11493 | 549 ft | 103 kts | 269° |
| 2026-04-13 02:11 | -33.83198 | 151.10642 | 548 ft | 103 kts | 269° |
| 2026-04-13 02:11 | -33.83164 | 151.09783 | 545 ft | 102 kts | 269° |
| 2026-04-13 02:11 | -33.83151 | 151.08900 | 542 ft | 108 kts | 269° |
| 2026-04-13 02:11 | -33.83197 | 151.07989 | 922 ft | 111 kts | 249° |
| 2026-04-13 02:12 | -33.83638 | 151.07153 | 1305 ft | 132 kts | 227° |
| 2026-04-13 02:12 | -33.84227 | 151.06326 | 1308 ft | 126 kts | 228° |
| 2026-04-13 02:12 | -33.84780 | 151.05532 | 1318 ft | 124 kts | 228° |
| 2026-04-13 02:12 | -33.85369 | 151.04724 | 1328 ft | 125 kts | 228° |
| 2026-04-13 02:13 | -33.85936 | 151.03935 | 1325 ft | 128 kts | 228° |
| 2026-04-13 02:13 | -33.86537 | 151.03129 | 1323 ft | 125 kts | 228° |
| 2026-04-13 02:13 | -33.87126 | 151.02344 | 1305 ft | 117 kts | 230° |
| 2026-04-13 02:13 | -33.87551 | 151.01667 | 1580 ft | 95 kts | 233° |
| 2026-04-13 02:14 | -33.88016 | 151.00971 | 940 ft | 112 kts | 225° |
| 2026-04-13 02:14 | -33.88543 | 151.00363 | 1351 ft | 108 kts | 223° |
| 2026-04-13 02:14 | -33.89118 | 150.99636 | 1057 ft | 126 kts | 227° |
| 2026-04-13 02:14 | -33.89703 | 150.98879 | 1059 ft | 125 kts | 227° |
| 2026-04-13 02:15 | -33.90320 | 150.98105 | 1079 ft | 128 kts | 227° |
| 2026-04-13 02:15 | -33.90918 | 150.97350 | 1078 ft | 124 kts | 227° |
| 2026-04-13 02:15 | -33.91525 | 150.96566 | 1071 ft | 130 kts | 227° |
| 2026-04-13 02:15 | -33.92140 | 150.95812 | 1068 ft | 129 kts | 227° |
| 2026-04-13 02:16 | -33.92743 | 150.95061 | 1064 ft | 123 kts | 227° |
| 2026-04-13 02:16 | -33.93354 | 150.94299 | 1068 ft | 120 kts | 227° |
| 2026-04-13 02:16 | -33.93945 | 150.93557 | 1067 ft | 123 kts | 227° |
| 2026-04-13 02:16 | -33.94558 | 150.92820 | 1061 ft | 128 kts | 227° |
| 2026-04-13 02:17 | -33.95283 | 150.92188 | 902 ft | 135 kts | 202° |
| 2026-04-13 02:17 | -33.96181 | 150.92008 | 904 ft | 129 kts | 185° |
| 2026-04-13 02:17 | -33.97038 | 150.92292 | 1206 ft | 130 kts | 161° |
| 2026-04-13 02:17 | -33.97856 | 150.92727 | 1167 ft | 134 kts | 161° |
| 2026-04-13 02:18 | -33.98650 | 150.93190 | 925 ft | 109 kts | 156° |
| 2026-04-13 02:18 | -33.99163 | 150.93659 | 1013 ft | 84 kts | 131° |
| 2026-04-13 02:18 | -33.99490 | 150.94238 | 771 ft | 84 kts | 133° |
| 2026-04-13 02:18 | -33.99816 | 150.94814 | 817 ft | 86 kts | 138° |
| 2026-04-13 02:19 | -34.00132 | 150.95394 | 634 ft | 68 kts | 91° |
| 2026-04-13 02:19 | -33.99925 | 150.95645 | 440 ft | 56 kts | 357° |
| 2026-04-13 02:19 | -33.99712 | 150.95470 | 314 ft | 13 kts | 311° |
| 2026-04-13 02:19 | -33.99672 | 150.95409 | 252 ft | 5 kts | 297° |
| 2026-04-13 02:20 | -33.99634 | 150.95349 | 249 ft | 9 kts | 353° |
| 2026-04-13 02:20 | -33.99591 | 150.95373 | 249 ft | 4 kts | 34° |
| 2026-04-13 02:20 | -33.99559 | 150.95396 | 250 ft | 8 kts | 354° |
| 2026-04-13 02:20 | -33.99525 | 150.95346 | 250 ft | 7 kts | 304° |
| 2026-04-13 02:21 | -33.99512 | 150.95322 | 250 ft | 0 kts | 305° |